Time;durP1;ratioP1;P1;durP2;ratioP2;P2;SDS_P1;SDS_P2;PMS_P1;PMS_P2;Temp;Humidity;BMP_temperature;BMP_pressure;BME280_temperature;BME280_humidity;BME280_pressure;Samples;Min_cycle;Max_cycle;Signal;HPM_P1;HPM_P2
2022/05/15 00:00:49;;;;;;;28.83;6.57;;;;;;;-145.18;100.00;60484.78;5046024;28;20048;-68
2022/05/15 00:03:20;;;;;;;27.07;6.77;;;;;;;-145.18;100.00;60484.78;5034443;28;20444;-68
2022/05/15 00:05:54;;;;;;;34.30;7.05;;;;;;;-145.18;100.00;60484.78;5049572;28;20021;-68
2022/05/15 00:08:20;;;;;;;27.97;7.00;;;;;;;-145.18;100.00;60484.78;5053035;28;20408;-68
2022/05/15 00:10:46;;;;;;;27.00;6.87;;;;;;;-145.18;100.00;60484.78;5044602;28;20036;-68
2022/05/15 00:13:12;;;;;;;27.07;6.50;;;;;;;-145.18;100.00;60484.78;5034468;28;20030;-68
2022/05/15 00:15:38;;;;;;;27.03;7.00;;;;;;;-145.18;100.00;60484.78;5046644;28;20107;-68
2022/05/15 00:18:05;;;;;;;35.03;8.30;;;;;;;-145.18;100.00;60484.78;5047367;28;20025;-68
2022/05/15 00:20:30;;;;;;;41.83;8.77;;;;;;;-145.18;100.00;60484.78;5043943;28;20028;-68
2022/05/15 00:22:56;;;;;;;28.53;8.07;;;;;;;-145.18;100.00;60484.78;5041146;28;20028;-68
2022/05/15 00:25:22;;;;;;;29.03;7.07;;;;;;;-145.18;100.00;60484.78;5047705;28;20025;-68
2022/05/15 00:27:49;;;;;;;29.57;8.27;;;;;;;-145.18;100.00;60484.78;5036271;28;20115;-68
2022/05/15 00:30:17;;;;;;;31.90;7.70;;;;;;;-145.18;100.00;60484.78;5045529;28;20396;-68
2022/05/15 00:32:42;;;;;;;34.20;8.37;;;;;;;-145.18;100.00;60484.78;5044909;28;20052;-68
2022/05/15 00:35:08;;;;;;;38.60;8.77;;;;;;;-145.18;100.00;60484.78;5045445;28;20766;-68
2022/05/15 00:37:34;;;;;;;36.97;8.97;;;;;;;-145.18;100.00;60484.78;5033640;28;20067;-67
2022/05/15 00:39:59;;;;;;;39.40;9.60;;;;;;;-145.18;100.00;60484.78;5034117;28;20026;-68
2022/05/15 00:42:25;;;;;;;29.10;8.33;;;;;;;-145.18;100.00;60484.78;5033903;28;20033;-68
2022/05/15 00:44:50;;;;;;;33.17;8.57;;;;;;;-145.18;100.00;60484.78;5051286;28;20078;-68
2022/05/15 00:47:16;;;;;;;26.73;7.83;;;;;;;-145.18;100.00;60484.78;5053161;28;20764;-67
2022/05/15 00:49:42;;;;;;;32.53;8.23;;;;;;;-145.18;100.00;60484.78;5052358;28;20106;-67
2022/05/15 00:52:15;;;;;;;31.50;8.07;;;;;;;-145.18;100.00;60484.78;5045902;28;20470;-68
2022/05/15 00:54:46;;;;;;;31.40;9.60;;;;;;;-145.18;100.00;60484.78;5033720;28;20045;-67
2022/05/15 00:57:26;;;;;;;30.98;8.35;;;;;;;-145.18;100.00;60484.78;5033897;28;20477;-67
2022/05/15 00:59:51;;;;;;;37.30;8.90;;;;;;;-145.18;100.00;60484.78;5035295;28;20489;-67
2022/05/15 01:02:18;;;;;;;30.67;8.43;;;;;;;-145.18;100.00;60484.78;5050096;28;20048;-67
2022/05/15 01:04:46;;;;;;;34.33;9.43;;;;;;;-145.18;100.00;60484.78;5034735;28;20030;-68
2022/05/15 01:07:12;;;;;;;26.90;8.47;;;;;;;-145.18;100.00;60484.78;5033625;28;20389;-67
2022/05/15 01:09:37;;;;;;;30.60;8.57;;;;;;;-145.18;100.00;60484.78;5033085;28;20033;-67
2022/05/15 01:12:04;;;;;;;28.30;8.77;;;;;;;-145.18;100.00;60484.78;5033512;28;20040;-67
2022/05/15 01:14:31;;;;;;;31.10;8.30;;;;;;;-145.18;100.00;60484.78;5051823;28;20049;-67
2022/05/15 01:16:57;;;;;;;29.40;8.20;;;;;;;-145.18;100.00;60484.78;5038676;28;20033;-67
2022/05/15 01:19:34;;;;;;;30.20;9.03;;;;;;;-145.18;100.00;60484.78;5034970;28;20108;-68
2022/05/15 01:22:00;;;;;;;29.83;8.43;;;;;;;-145.18;100.00;60484.78;5035717;28;20037;-68
2022/05/15 01:24:26;;;;;;;28.00;8.60;;;;;;;-145.18;100.00;60484.78;5045603;28;20029;-68
2022/05/15 01:26:52;;;;;;;29.70;8.43;;;;;;;-145.18;100.00;60484.78;5041762;28;20070;-67
2022/05/15 01:29:26;;;;;;;33.93;8.73;;;;;;;-145.18;100.00;60484.78;5050063;28;20440;-68
2022/05/15 01:31:52;;;;;;;33.00;8.77;;;;;;;-145.18;100.00;60484.78;5048575;28;20454;-67
2022/05/15 01:34:17;;;;;;;34.70;8.90;;;;;;;-145.18;100.00;60484.78;5046895;28;20051;-68
2022/05/15 01:36:43;;;;;;;29.70;9.77;;;;;;;-145.18;100.00;60484.78;5041283;28;20071;-67
2022/05/15 01:39:08;;;;;;;36.83;10.07;;;;;;;-145.18;100.00;60484.78;5033330;28;20041;-67
2022/05/15 01:41:34;;;;;;;36.53;9.90;;;;;;;-145.18;100.00;60484.78;5046131;28;20029;-68
2022/05/15 01:43:59;;;;;;;35.13;10.73;;;;;;;-145.18;100.00;60484.78;5037664;28;20112;-68
2022/05/15 01:46:28;;;;;;;33.17;10.33;;;;;;;-145.18;100.00;60484.78;5048341;28;20028;-68
2022/05/15 01:48:54;;;;;;;37.97;9.93;;;;;;;-145.18;100.00;60484.78;5051330;28;20032;-67
2022/05/15 01:51:21;;;;;;;29.03;9.77;;;;;;;-145.18;100.00;60484.78;5034599;28;20056;-68
2022/05/15 01:53:47;;;;;;;31.00;9.30;;;;;;;-145.18;100.00;60484.78;5039851;28;20037;-67
2022/05/15 01:56:13;;;;;;;34.50;10.03;;;;;;;-145.18;100.00;60484.78;5037654;28;20035;-68
2022/05/15 01:58:39;;;;;;;40.97;10.00;;;;;;;-145.18;100.00;60484.78;5038754;28;20028;-67
2022/05/15 02:01:05;;;;;;;38.30;11.30;;;;;;;-145.18;100.00;60484.78;5033212;28;20458;-67
2022/05/15 02:03:31;;;;;;;36.90;11.30;;;;;;;-145.18;100.00;60484.78;5032389;28;20094;-67
2022/05/15 02:05:56;;;;;;;36.30;10.37;;;;;;;-145.18;100.00;60484.78;5032424;28;20067;-68
2022/05/15 02:08:21;;;;;;;37.50;10.93;;;;;;;-145.18;100.00;60484.78;5037885;28;20025;-68
2022/05/15 02:10:47;;;;;;;41.83;11.70;;;;;;;-145.18;100.00;60484.78;5051005;28;20043;-67
2022/05/15 02:13:12;;;;;;;30.70;10.10;;;;;;;-145.18;100.00;60484.78;5032965;28;20025;-67
2022/05/15 02:15:38;;;;;;;33.27;10.37;;;;;;;-145.18;100.00;60484.78;5038782;28;20100;-67
2022/05/15 02:18:04;;;;;;;43.57;12.83;;;;;;;-145.18;100.00;60484.78;5052185;28;20362;-67
2022/05/15 02:20:33;;;;;;;39.33;12.50;;;;;;;-145.18;100.00;60484.78;5052438;28;20593;-67
2022/05/15 02:22:58;;;;;;;41.70;12.33;;;;;;;-145.18;100.00;60484.78;5052141;28;20036;-67
2022/05/15 02:25:24;;;;;;;46.73;13.10;;;;;;;-145.18;100.00;60484.78;5049405;28;20029;-67
2022/05/15 02:27:49;;;;;;;48.83;14.47;;;;;;;-145.18;100.00;60484.78;5042231;28;20143;-67
2022/05/15 02:30:16;;;;;;;42.77;14.47;;;;;;;-145.18;100.00;60484.78;5046743;28;20159;-67
2022/05/15 02:32:41;;;;;;;48.73;16.47;;;;;;;-145.18;100.00;60484.78;5032947;28;20025;-67
2022/05/15 02:35:07;;;;;;;57.80;16.80;;;;;;;-145.18;100.00;60484.78;5031378;28;20693;-67
2022/05/15 02:37:32;;;;;;;52.80;17.00;;;;;;;-145.18;100.00;60484.78;5041427;28;20044;-67
2022/05/15 02:39:58;;;;;;;44.23;15.83;;;;;;;-145.18;100.00;60484.78;5044047;28;20029;-67
2022/05/15 02:42:24;;;;;;;35.67;13.03;;;;;;;-145.18;100.00;60484.78;5039772;28;20060;-67
2022/05/15 02:44:49;;;;;;;49.63;14.63;;;;;;;-145.18;100.00;60484.78;5034883;28;20057;-67
2022/05/15 02:47:15;;;;;;;45.43;14.83;;;;;;;-145.18;100.00;60484.78;5036954;28;20121;-68
2022/05/15 02:52:24;;;;;;;46.97;14.67;;;;;;;-145.18;100.00;60484.78;5033512;28;20047;-67
2022/05/15 02:54:49;;;;;;;43.70;13.43;;;;;;;-145.18;100.00;60484.78;5032859;28;20025;-67
2022/05/15 02:57:15;;;;;;;36.40;12.60;;;;;;;-145.18;100.00;60484.78;5048952;28;20037;-67
2022/05/15 02:59:40;;;;;;;32.37;13.17;;;;;;;-145.18;100.00;60484.78;5044192;28;20417;-67
2022/05/15 03:02:06;;;;;;;38.00;10.80;;;;;;;-145.18;100.00;60484.78;5035356;28;20465;-67
2022/05/15 03:04:32;;;;;;;41.57;13.27;;;;;;;-145.18;100.00;60484.78;5051833;28;20029;-68
2022/05/15 03:06:58;;;;;;;42.13;13.10;;;;;;;-145.18;100.00;60484.78;5040190;28;20572;-67
2022/05/15 03:09:23;;;;;;;44.10;14.80;;;;;;;-145.18;100.00;60484.78;5049533;28;20035;-68
2022/05/15 03:11:49;;;;;;;44.63;15.13;;;;;;;-145.18;100.00;60484.78;5036318;28;20029;-68
2022/05/15 03:14:14;;;;;;;51.10;16.33;;;;;;;-145.18;100.00;60484.78;5046092;28;20033;-67
2022/05/15 03:16:40;;;;;;;42.73;15.33;;;;;;;-145.18;100.00;60484.78;5035697;28;20052;-67
2022/05/15 03:19:05;;;;;;;44.63;15.23;;;;;;;-145.18;100.00;60484.78;5032499;28;20087;-68
2022/05/15 03:21:30;;;;;;;46.00;14.50;;;;;;;-145.18;100.00;60484.78;5033019;28;20072;-68
2022/05/15 03:24:01;;;;;;;45.13;16.30;;;;;;;-145.18;100.00;60484.78;5033125;28;20425;-68
2022/05/15 03:26:28;;;;;;;47.43;15.60;;;;;;;-145.18;100.00;60484.78;5032322;28;20053;-67
2022/05/15 03:28:55;;;;;;;44.93;13.70;;;;;;;-145.18;100.00;60484.78;5037522;28;20024;-67
2022/05/15 03:31:20;;;;;;;41.63;14.53;;;;;;;-145.18;100.00;60484.78;5037056;28;20030;-67
2022/05/15 03:33:47;;;;;;;40.57;14.43;;;;;;;-145.18;100.00;60484.78;5031500;28;20036;-68
2022/05/15 03:36:14;;;;;;;48.93;15.37;;;;;;;-145.18;100.00;60484.78;5031789;28;20057;-67
2022/05/15 03:38:41;;;;;;;40.03;15.20;;;;;;;-145.18;100.00;60484.78;5035393;28;20090;-67
2022/05/15 03:41:07;;;;;;;42.80;15.53;;;;;;;-145.18;100.00;60484.78;5050962;28;20052;-68
2022/05/15 03:43:34;;;;;;;55.07;16.67;;;;;;;-145.18;100.00;60484.78;5045474;28;20494;-68
2022/05/15 03:46:00;;;;;;;46.03;16.67;;;;;;;-145.18;100.00;60484.78;5032544;28;20037;-68
2022/05/15 03:48:25;;;;;;;43.93;16.77;;;;;;;-145.18;100.00;60484.78;5032403;28;20037;-67
2022/05/15 03:50:51;;;;;;;42.57;14.87;;;;;;;-145.18;100.00;60484.78;5051250;28;20063;-68
2022/05/15 03:53:16;;;;;;;45.30;15.93;;;;;;;-145.18;100.00;60484.78;5036469;28;20020;-68
2022/05/15 03:55:41;;;;;;;45.40;17.90;;;;;;;-145.18;100.00;60484.78;5031304;28;20037;-68
2022/05/15 03:58:07;;;;;;;47.40;15.80;;;;;;;-145.18;100.00;60484.78;5045646;28;20025;-67
2022/05/15 04:00:34;;;;;;;45.60;16.13;;;;;;;-145.18;100.00;60484.78;5045443;28;20041;-68
2022/05/15 04:02:59;;;;;;;45.90;14.87;;;;;;;-145.18;100.00;60484.78;5034036;28;20099;-68
2022/05/15 04:05:25;;;;;;;43.07;14.80;;;;;;;-145.18;100.00;60484.78;5050427;28;20025;-67
2022/05/15 04:07:50;;;;;;;38.97;14.80;;;;;;;-145.18;100.00;60484.78;5039736;28;20037;-67
2022/05/15 04:10:19;;;;;;;40.33;13.70;;;;;;;-145.18;100.00;60484.78;5030903;28;20139;-67
2022/05/15 04:12:45;;;;;;;45.07;13.80;;;;;;;-145.18;100.00;60484.78;5050733;28;20068;-68
2022/05/15 04:15:12;;;;;;;41.30;13.60;;;;;;;-145.18;100.00;60484.78;5043064;28;20056;-67
2022/05/15 04:17:46;;;;;;;34.50;13.10;;;;;;;-145.18;100.00;60484.78;5050471;28;20029;-68
2022/05/15 04:20:14;;;;;;;34.23;11.77;;;;;;;-145.18;100.00;60484.78;5050876;28;20025;-68
2022/05/15 04:22:39;;;;;;;33.60;10.50;;;;;;;-145.18;100.00;60484.78;5039990;28;20048;-67
2022/05/15 04:25:05;;;;;;;24.70;9.47;;;;;;;-145.18;100.00;60484.78;5050967;28;20025;-67
2022/05/15 04:27:31;;;;;;;24.07;7.90;;;;;;;-145.18;100.00;60484.78;5049567;28;20021;-67
2022/05/15 04:29:56;;;;;;;24.93;7.37;;;;;;;-145.18;100.00;60484.78;5043594;28;20400;-67
2022/05/15 04:32:21;;;;;;;21.47;6.73;;;;;;;-145.18;100.00;60484.78;5041569;28;20036;-67
2022/05/15 04:34:47;;;;;;;17.70;6.13;;;;;;;-145.18;100.00;60484.78;5030933;28;20044;-67
2022/05/15 04:37:13;;;;;;;18.10;6.57;;;;;;;-145.18;100.00;60484.78;5034164;28;20025;-67
2022/05/15 04:39:38;;;;;;;18.47;5.97;;;;;;;-145.18;100.00;60484.78;5048628;28;20028;-67
2022/05/15 04:42:04;;;;;;;21.93;5.43;;;;;;;-145.18;100.00;60484.78;5051468;28;20075;-67
2022/05/15 04:44:29;;;;;;;19.83;6.17;;;;;;;-145.18;100.00;60484.78;5034704;28;20048;-67
2022/05/15 04:46:55;;;;;;;16.67;5.70;;;;;;;-145.18;100.00;60484.78;5034399;28;20424;-67
2022/05/15 04:49:20;;;;;;;16.87;5.83;;;;;;;-145.18;100.00;60484.78;5037785;28;20029;-67
2022/05/15 04:51:45;;;;;;;17.80;6.43;;;;;;;-145.18;100.00;60484.78;5043642;28;20511;-67
2022/05/15 04:54:11;;;;;;;17.97;5.70;;;;;;;-145.18;100.00;60484.78;5039277;28;20025;-67
2022/05/15 04:56:36;;;;;;;19.20;5.57;;;;;;;-145.18;100.00;60484.78;5036019;28;20103;-68
2022/05/15 04:59:02;;;;;;;17.73;5.33;;;;;;;-145.18;100.00;60484.78;5046874;28;20071;-68
2022/05/15 05:01:27;;;;;;;18.07;5.43;;;;;;;-145.18;100.00;60484.78;5037188;28;20049;-67
2022/05/15 05:03:54;;;;;;;19.77;5.77;;;;;;;-145.18;100.00;60484.78;5045498;28;20037;-67
2022/05/15 05:06:20;;;;;;;18.70;5.40;;;;;;;-145.18;100.00;60484.78;5044903;28;20413;-67
2022/05/15 05:08:45;;;;;;;18.10;5.23;;;;;;;-145.18;100.00;60484.78;5050989;28;20033;-68
2022/05/15 05:11:10;;;;;;;19.30;5.50;;;;;;;-145.18;100.00;60484.78;5042292;28;20150;-68
2022/05/15 05:13:36;;;;;;;17.13;5.40;;;;;;;-145.18;100.00;60484.78;5035131;28;20477;-67
2022/05/15 05:16:01;;;;;;;17.43;5.20;;;;;;;-145.18;100.00;60484.78;5038672;28;20473;-67
2022/05/15 05:18:26;;;;;;;15.17;4.87;;;;;;;-145.18;100.00;60484.78;5051626;28;20129;-67
2022/05/15 05:20:52;;;;;;;17.83;5.13;;;;;;;-145.18;100.00;60484.78;5035264;28;20021;-68
2022/05/15 05:23:17;;;;;;;15.25;5.43;;;;;;;-145.18;100.00;60484.78;5033443;28;20029;-67
2022/05/15 05:25:42;;;;;;;15.80;4.90;;;;;;;-145.18;100.00;60484.78;5043975;28;20026;-68
2022/05/15 05:28:08;;;;;;;14.20;5.22;;;;;;;-145.18;100.00;60484.78;5034477;28;20025;-67
2022/05/15 05:30:34;;;;;;;16.80;5.70;;;;;;;-145.18;100.00;60484.78;5046197;28;20123;-67
2022/05/15 05:33:00;;;;;;;16.58;5.50;;;;;;;-145.18;100.00;60484.78;5053423;28;20485;-68
2022/05/15 05:35:26;;;;;;;19.52;5.05;;;;;;;-145.18;100.00;60484.78;5036925;28;20436;-67
2022/05/15 05:37:52;;;;;;;13.45;4.60;;;;;;;-145.18;100.00;60484.78;5033687;28;20048;-67
2022/05/15 05:40:19;;;;;;;14.15;4.85;;;;;;;-145.18;100.00;60484.78;5036811;28;20565;-67
2022/05/15 05:42:44;;;;;;;14.65;4.88;;;;;;;-145.18;100.00;60484.78;5035741;28;20033;-67
2022/05/15 05:45:10;;;;;;;11.75;4.30;;;;;;;-145.18;100.00;60484.78;5038888;28;20033;-67
2022/05/15 05:47:36;;;;;;;14.95;4.63;;;;;;;-145.18;100.00;60484.78;5051355;28;20029;-68
2022/05/15 05:50:02;;;;;;;15.75;4.70;;;;;;;-145.18;100.00;60484.78;5052999;28;20029;-68
2022/05/15 05:52:28;;;;;;;13.52;4.75;;;;;;;-145.18;100.00;60484.78;5035196;28;20029;-68
2022/05/15 05:54:53;;;;;;;13.60;4.05;;;;;;;-145.18;100.00;60484.78;5038950;28;20565;-68
2022/05/15 05:57:19;;;;;;;16.05;4.70;;;;;;;-145.18;100.00;60484.78;5045282;28;20081;-68
2022/05/15 05:59:45;;;;;;;11.63;4.25;;;;;;;-145.18;100.00;60484.78;5039690;28;20030;-69
2022/05/15 06:02:10;;;;;;;12.65;4.13;;;;;;;-145.18;100.00;60484.78;5034138;28;20486;-68
2022/05/15 06:04:39;;;;;;;13.05;4.57;;;;;;;-145.18;100.00;60484.78;5046253;28;20033;-68
2022/05/15 06:07:05;;;;;;;10.98;3.67;;;;;;;-145.18;100.00;60484.78;5048039;28;20477;-68
2022/05/15 06:09:31;;;;;;;10.82;3.50;;;;;;;-145.18;100.00;60484.78;5032889;28;20033;-68
2022/05/15 06:11:56;;;;;;;14.30;4.30;;;;;;;-145.18;100.00;60484.78;5047401;28;20520;-68
2022/05/15 06:14:22;;;;;;;16.08;4.30;;;;;;;-145.18;100.00;60484.78;5049603;28;20110;-68
2022/05/15 06:16:47;;;;;;;11.60;4.07;;;;;;;-145.18;100.00;60484.78;5033931;28;20037;-68
2022/05/15 06:19:13;;;;;;;16.88;3.70;;;;;;;-145.18;100.00;60484.78;5032987;28;20029;-68
2022/05/15 06:21:38;;;;;;;10.75;3.47;;;;;;;-145.18;100.00;60484.78;5052470;28;20021;-68
2022/05/15 06:24:04;;;;;;;11.82;3.63;;;;;;;-145.18;100.00;60484.78;5052483;28;20032;-68
2022/05/15 06:26:29;;;;;;;11.60;3.95;;;;;;;-145.18;100.00;60484.78;5034694;28;20123;-68
2022/05/15 06:28:54;;;;;;;11.10;3.55;;;;;;;-145.18;100.00;60484.78;5034704;28;20033;-68
2022/05/15 06:31:20;;;;;;;13.68;3.90;;;;;;;-145.18;100.00;60484.78;5034373;28;20433;-68
2022/05/15 06:33:45;;;;;;;12.98;3.45;;;;;;;-145.18;100.00;60484.78;5043028;28;20110;-68
2022/05/15 06:36:11;;;;;;;12.90;3.85;;;;;;;-145.18;100.00;60484.78;5033725;28;20061;-68
2022/05/15 06:38:40;;;;;;;11.60;4.40;;;;;;;-145.18;100.00;60484.78;5034052;28;20029;-68
2022/05/15 06:41:07;;;;;;;10.27;3.70;;;;;;;-145.18;100.00;60484.78;5032203;28;20030;-68
2022/05/15 06:43:33;;;;;;;10.65;4.15;;;;;;;-145.18;100.00;60484.78;5034349;28;20021;-68
2022/05/15 06:45:58;;;;;;;13.18;3.72;;;;;;;-145.18;100.00;60484.78;5037291;28;20030;-68
2022/05/15 06:48:23;;;;;;;12.38;4.00;;;;;;;-145.18;100.00;60484.78;5033130;28;20119;-69
2022/05/15 06:50:49;;;;;;;13.18;4.35;;;;;;;-145.18;100.00;60484.78;5032275;28;20461;-68
2022/05/15 06:53:15;;;;;;;12.40;3.97;;;;;;;-145.18;100.00;60484.78;5037628;28;20060;-69
2022/05/15 06:57:28;;;;;;;13.68;4.20;;;;;;;-145.18;100.00;60484.78;5037116;28;20076;-68
2022/05/15 06:58:26;;;;;;;13.65;3.97;;;;;;;-145.18;100.00;60484.78;5033366;28;20380;-69
2022/05/15 07:00:52;;;;;;;10.85;4.35;;;;;;;-145.18;100.00;60484.78;5035886;28;20047;-68
2022/05/15 07:03:17;;;;;;;14.05;4.30;;;;;;;-145.18;100.00;60484.78;5041050;28;20481;-68
2022/05/15 07:05:43;;;;;;;13.18;4.10;;;;;;;-145.18;100.00;60484.78;5051719;28;20028;-68
2022/05/15 07:08:10;;;;;;;12.38;3.70;;;;;;;-145.18;100.00;60484.78;5048663;28;20086;-68
2022/05/15 07:10:35;;;;;;;11.60;3.72;;;;;;;-145.18;100.00;60484.78;5033476;28;20489;-68
2022/05/15 07:13:00;;;;;;;11.23;3.53;;;;;;;-145.18;100.00;60484.78;5033801;28;20025;-68
2022/05/15 07:15:26;;;;;;;9.85;3.40;;;;;;;-145.18;100.00;60484.78;5038225;28;20075;-68
2022/05/15 07:17:51;;;;;;;10.55;3.58;;;;;;;-145.18;100.00;60484.78;5040102;28;20053;-68
2022/05/15 07:20:17;;;;;;;14.90;4.00;;;;;;;-145.18;100.00;60484.78;5051631;28;20027;-68
2022/05/15 07:22:42;;;;;;;9.95;3.25;;;;;;;-145.18;100.00;60484.78;5038630;28;20045;-69
2022/05/15 07:25:08;;;;;;;11.90;2.78;;;;;;;-145.18;100.00;60484.78;5030191;28;20482;-68
2022/05/15 07:27:33;;;;;;;11.02;2.70;;;;;;;-145.18;100.00;60484.78;5031776;28;20026;-68
2022/05/15 07:29:58;;;;;;;9.45;2.55;;;;;;;-145.18;100.00;60484.78;5037544;28;20059;-68
2022/05/15 07:32:24;;;;;;;12.20;2.70;;;;;;;-145.18;100.00;60484.78;5032788;28;20071;-68
2022/05/15 07:34:49;;;;;;;10.75;2.40;;;;;;;-145.18;100.00;60484.78;5051487;28;20354;-68
2022/05/15 07:37:16;;;;;;;8.82;2.75;;;;;;;-145.18;100.00;60484.78;5050506;28;20025;-69
2022/05/15 07:39:42;;;;;;;10.15;2.78;;;;;;;-145.18;100.00;60484.78;5033377;28;20021;-69
2022/05/15 07:42:08;;;;;;;9.07;2.58;;;;;;;-145.18;100.00;60484.78;5030516;28;20367;-69
2022/05/15 07:44:34;;;;;;;8.02;2.10;;;;;;;-145.18;100.00;60484.78;5028353;28;20021;-68
2022/05/15 07:46:59;;;;;;;12.40;2.80;;;;;;;-145.18;100.00;60484.78;5035698;28;20025;-69
2022/05/15 07:49:24;;;;;;;9.43;2.60;;;;;;;-145.18;100.00;60484.78;5047870;28;20032;-69
2022/05/15 07:51:50;;;;;;;10.77;2.47;;;;;;;-145.18;100.00;60484.78;5051001;28;20025;-68
2022/05/15 07:54:17;;;;;;;12.30;2.35;;;;;;;-145.18;100.00;60484.78;5038755;28;20071;-69
2022/05/15 07:56:42;;;;;;;9.48;2.17;;;;;;;-145.18;100.00;60484.78;5031234;28;20104;-68
2022/05/15 07:59:08;;;;;;;9.70;2.75;;;;;;;-145.18;100.00;60484.78;5036403;28;20075;-68
2022/05/15 08:01:34;;;;;;;10.30;2.30;;;;;;;-145.18;100.00;60484.78;5039874;28;20035;-68
2022/05/15 08:04:00;;;;;;;10.05;2.42;;;;;;;-145.18;100.00;60484.78;5038585;28;20557;-68
2022/05/15 08:09:09;;;;;;;8.60;2.30;;;;;;;-145.18;100.00;60484.78;5049167;28;20279;-68
2022/05/15 08:11:36;;;;;;;11.88;2.67;;;;;;;-145.18;100.00;60484.78;5050973;28;20169;-68
2022/05/15 08:14:03;;;;;;;9.65;2.42;;;;;;;-145.18;100.00;60484.78;5034628;28;20104;-68
2022/05/15 08:16:29;;;;;;;7.25;1.95;;;;;;;-145.18;100.00;60484.78;5035785;28;20033;-68
2022/05/15 08:24:23;;;;;;;12.15;2.60;;;;;;;-145.18;100.00;60484.78;5037178;28;20040;-66
2022/05/15 08:26:49;;;;;;;10.55;2.25;;;;;;;-145.18;100.00;60484.78;5034783;28;20029;-66
2022/05/15 08:29:14;;;;;;;11.52;2.13;;;;;;;-145.18;100.00;60484.78;5034245;28;20029;-66
2022/05/15 08:31:40;;;;;;;9.88;2.45;;;;;;;-145.18;100.00;60484.78;5034536;28;20108;-65
2022/05/15 08:34:06;;;;;;;8.73;2.35;;;;;;;-145.18;100.00;60484.78;5038410;28;20029;-66
2022/05/15 08:36:32;;;;;;;11.38;2.65;;;;;;;-145.18;100.00;60484.78;5048709;28;20496;-65
2022/05/15 08:38:58;;;;;;;8.95;2.42;;;;;;;-145.18;100.00;60484.78;5051215;28;20048;-66
2022/05/15 08:41:30;;;;;;;8.77;2.33;;;;;;;-145.18;100.00;60484.78;5034313;28;20437;-66
2022/05/15 08:44:01;;;;;;;12.13;2.50;;;;;;;-145.18;100.00;60484.78;5034296;28;20121;-65
2022/05/15 08:47:02;;;;;;;7.47;2.38;;;;;;;-145.18;100.00;60484.78;5034699;28;20555;-66
2022/05/15 08:49:36;;;;;;;10.70;2.20;;;;;;;-145.18;100.00;60484.78;5034331;28;20028;-66
2022/05/15 08:52:04;;;;;;;8.18;2.40;;;;;;;-145.18;100.00;60484.78;5041327;28;20025;-66
2022/05/15 08:54:34;;;;;;;14.18;2.83;;;;;;;-145.18;100.00;60484.78;5052560;28;20017;-66
2022/05/15 08:56:59;;;;;;;9.88;2.50;;;;;;;-145.18;100.00;60484.78;5038608;28;20556;-66
2022/05/15 08:59:33;;;;;;;6.95;1.90;;;;;;;-145.18;100.00;60484.78;5046099;28;20117;-66
2022/05/15 09:02:00;;;;;;;11.40;2.38;;;;;;;-145.18;100.00;60484.78;5043106;28;20040;-66
2022/05/15 09:04:27;;;;;;;7.80;2.20;;;;;;;-145.18;100.00;60484.78;5041200;28;20072;-66
2022/05/15 09:07:04;;;;;;;10.15;2.60;;;;;;;-145.18;100.00;60484.78;5038043;28;20116;-66
2022/05/15 09:10:00;;;;;;;7.53;2.17;;;;;;;-145.18;100.00;60484.78;5053150;28;20033;-66
2022/05/15 09:12:26;;;;;;;11.10;2.55;;;;;;;-145.18;100.00;60484.78;5050994;28;20374;-66
2022/05/15 09:14:58;;;;;;;13.15;2.90;;;;;;;-145.18;100.00;60484.78;5042822;28;20020;-66
2022/05/15 09:17:58;;;;;;;12.63;2.78;;;;;;;-145.18;100.00;60484.78;5034845;28;20437;-66
2022/05/15 09:20:24;;;;;;;9.82;2.28;;;;;;;-145.18;100.00;60484.78;5051425;28;20029;-66
2022/05/15 09:23:01;;;;;;;10.20;2.47;;;;;;;-145.18;100.00;60484.78;5033477;28;20059;-66
2022/05/15 09:25:33;;;;;;;11.43;2.78;;;;;;;-145.18;100.00;60484.78;5035052;28;20034;-66
2022/05/15 09:28:06;;;;;;;10.45;2.95;;;;;;;-145.18;100.00;60484.78;5052201;28;20092;-66
2022/05/15 09:30:35;;;;;;;8.43;2.35;;;;;;;-145.18;100.00;60484.78;5044285;28;20051;-66
2022/05/15 09:33:00;;;;;;;8.68;2.47;;;;;;;-145.18;100.00;60484.78;5048998;28;20025;-66
2022/05/15 09:35:31;;;;;;;11.43;2.80;;;;;;;-145.18;100.00;60484.78;5034550;28;20036;-67
2022/05/15 09:43:33;;;;;;;11.52;2.78;;;;;;;-145.18;100.00;60484.78;5051825;28;20045;-67
2022/05/15 09:46:18;;;;;;;15.02;3.20;;;;;;;-145.18;100.00;60484.78;5041297;28;20021;-67
2022/05/15 09:48:57;;;;;;;11.30;2.33;;;;;;;-145.18;100.00;60484.78;5051634;28;20033;-68
2022/05/15 09:51:42;;;;;;;11.70;2.58;;;;;;;-145.18;100.00;60484.78;5052187;28;20035;-67
2022/05/15 09:54:08;;;;;;;13.35;2.72;;;;;;;-145.18;100.00;60484.78;5050247;28;20032;-68
2022/05/15 09:56:35;;;;;;;12.40;2.72;;;;;;;-145.18;100.00;60484.78;5051720;28;20377;-68
2022/05/15 09:59:12;;;;;;;10.43;2.65;;;;;;;-145.18;100.00;60484.78;5041711;28;20104;-68
2022/05/15 10:01:40;;;;;;;11.38;2.85;;;;;;;-145.18;100.00;60484.78;5051121;28;20032;-68
2022/05/15 10:04:28;;;;;;;12.43;2.80;;;;;;;-145.18;100.00;60484.78;5052606;28;20036;-68
2022/05/15 10:07:00;;;;;;;11.00;2.40;;;;;;;-145.18;100.00;60484.78;5048198;28;20038;-68
2022/05/15 10:09:40;;;;;;;12.77;2.88;;;;;;;-145.18;100.00;60484.78;5049527;28;20025;-68
2022/05/15 10:12:23;;;;;;;13.90;2.50;;;;;;;-145.18;100.00;60484.78;5032432;28;20028;-68
2022/05/15 10:14:55;;;;;;;12.48;2.45;;;;;;;-145.18;100.00;60484.78;5033969;28;20170;-68
2022/05/15 10:17:24;;;;;;;9.55;2.35;;;;;;;-145.18;100.00;60484.78;5032425;28;20025;-68
2022/05/15 10:20:16;;;;;;;10.15;2.47;;;;;;;-145.18;100.00;60484.78;5036699;28;20025;-68
2022/05/15 10:23:06;;;;;;;13.77;2.63;;;;;;;-145.18;100.00;60484.78;5051414;28;20056;-68
2022/05/15 10:25:49;;;;;;;12.63;2.88;;;;;;;-145.18;100.00;60484.78;5032175;28;20033;-68
2022/05/15 10:28:33;;;;;;;8.52;2.30;;;;;;;-145.18;100.00;60484.78;5039246;28;20041;-67
2022/05/15 10:31:05;;;;;;;12.70;2.97;;;;;;;-145.18;100.00;60484.78;5033076;28;20393;-68
2022/05/15 10:33:36;;;;;;;11.65;2.60;;;;;;;-145.18;100.00;60484.78;5032129;28;20119;-68
2022/05/15 10:36:20;;;;;;;9.95;2.58;;;;;;;-145.18;100.00;60484.78;5035123;28;20036;-68
2022/05/15 10:39:06;;;;;;;11.00;2.50;;;;;;;-145.18;100.00;60484.78;5036572;28;20028;-67
2022/05/15 10:41:37;;;;;;;9.20;2.42;;;;;;;-145.18;100.00;60484.78;5041172;28;20048;-68
2022/05/15 10:44:30;;;;;;;13.55;2.75;;;;;;;-145.18;100.00;60484.78;5036346;28;20038;-67
2022/05/15 10:47:23;;;;;;;9.65;2.40;;;;;;;-145.18;100.00;60484.78;5033936;28;20040;-68
2022/05/15 10:50:12;;;;;;;10.40;2.17;;;;;;;-145.18;100.00;60484.78;5052017;28;20033;-67
2022/05/15 10:52:55;;;;;;;10.52;2.60;;;;;;;-145.18;100.00;60484.78;5052143;28;20039;-67
2022/05/15 10:58:23;;;;;;;11.13;2.58;;;;;;;-145.18;100.00;60484.78;5040237;28;20116;-67
2022/05/15 11:01:05;;;;;;;14.35;2.65;;;;;;;-145.18;100.00;60484.78;5042302;28;20155;-67
2022/05/15 11:03:39;;;;;;;7.68;2.17;;;;;;;-145.18;100.00;60484.78;5049879;28;20492;-68
2022/05/15 11:06:05;;;;;;;8.52;2.15;;;;;;;-145.18;100.00;60484.78;5037499;28;20026;-67
2022/05/15 11:08:58;;;;;;;9.43;2.47;;;;;;;-145.18;100.00;60484.78;5037551;28;20403;-67
2022/05/15 11:11:43;;;;;;;10.10;2.70;;;;;;;-145.18;100.00;60484.78;5031583;28;20117;-68
2022/05/15 11:14:28;;;;;;;9.43;2.60;;;;;;;-145.18;100.00;60484.78;5039329;28;20029;-68
2022/05/15 11:17:00;;;;;;;9.93;2.50;;;;;;;-145.18;100.00;60484.78;5038267;28;20079;-67
2022/05/15 11:19:35;;;;;;;11.63;2.40;;;;;;;-145.18;100.00;60484.78;5034268;28;20124;-68
2022/05/15 11:22:07;;;;;;;11.65;2.60;;;;;;;-145.18;100.00;60484.78;5031982;28;20497;-68
2022/05/15 11:24:40;;;;;;;9.45;2.55;;;;;;;-145.18;100.00;60484.78;5031201;28;20032;-68
2022/05/15 11:27:24;;;;;;;8.98;2.53;;;;;;;-145.18;100.00;60484.78;5032868;28;20044;-68